sensor_id;sensor_type;location;lat;lon;timestamp;P1;durP1;ratioP1;P2;durP2;ratioP2
75935;SDS011;64614;32.062;34.834;2024-01-30T00:00:02;3.13;;;1.90;;
75935;SDS011;64614;32.062;34.834;2024-01-30T00:02:29;3.47;;;1.80;;
75935;SDS011;64614;32.062;34.834;2024-01-30T00:04:55;2.45;;;1.73;;
75935;SDS011;64614;32.062;34.834;2024-01-30T00:07:20;3.05;;;1.70;;
75935;SDS011;64614;32.062;34.834;2024-01-30T00:09:46;3.58;;;1.73;;
75935;SDS011;64614;32.062;34.834;2024-01-30T00:12:13;3.83;;;1.83;;
75935;SDS011;64614;32.062;34.834;2024-01-30T00:14:41;3.95;;;1.80;;
75935;SDS011;64614;32.062;34.834;2024-01-30T00:17:08;4.13;;;1.92;;
75935;SDS011;64614;32.062;34.834;2024-01-30T00:19:34;2.17;;;1.60;;
75935;SDS011;64614;32.062;34.834;2024-01-30T00:22:02;3.03;;;1.75;;
75935;SDS011;64614;32.062;34.834;2024-01-30T00:24:31;2.67;;;1.55;;
75935;SDS011;64614;32.062;34.834;2024-01-30T00:26:56;2.78;;;1.45;;
75935;SDS011;64614;32.062;34.834;2024-01-30T00:29:24;3.40;;;1.60;;
75935;SDS011;64614;32.062;34.834;2024-01-30T00:31:54;2.83;;;1.42;;
75935;SDS011;64614;32.062;34.834;2024-01-30T00:34:22;2.63;;;1.40;;
75935;SDS011;64614;32.062;34.834;2024-01-30T00:36:47;2.63;;;1.50;;
75935;SDS011;64614;32.062;34.834;2024-01-30T00:39:13;2.13;;;1.10;;
75935;SDS011;64614;32.062;34.834;2024-01-30T00:41:40;3.17;;;1.20;;
75935;SDS011;64614;32.062;34.834;2024-01-30T00:44:06;4.00;;;1.50;;
75935;SDS011;64614;32.062;34.834;2024-01-30T00:46:32;2.42;;;1.30;;
75935;SDS011;64614;32.062;34.834;2024-01-30T00:48:58;3.15;;;1.20;;
75935;SDS011;64614;32.062;34.834;2024-01-30T00:51:23;3.22;;;1.33;;
75935;SDS011;64614;32.062;34.834;2024-01-30T00:53:49;2.58;;;1.40;;
75935;SDS011;64614;32.062;34.834;2024-01-30T00:56:15;3.55;;;1.40;;
75935;SDS011;64614;32.062;34.834;2024-01-30T00:58:43;2.00;;;1.45;;
75935;SDS011;64614;32.062;34.834;2024-01-30T01:01:09;3.28;;;1.40;;
75935;SDS011;64614;32.062;34.834;2024-01-30T01:03:34;2.67;;;1.23;;
75935;SDS011;64614;32.062;34.834;2024-01-30T01:06:00;3.88;;;1.50;;
75935;SDS011;64614;32.062;34.834;2024-01-30T01:08:25;3.65;;;1.40;;
75935;SDS011;64614;32.062;34.834;2024-01-30T01:10:51;2.58;;;1.55;;
75935;SDS011;64614;32.062;34.834;2024-01-30T01:13:17;2.22;;;1.30;;
75935;SDS011;64614;32.062;34.834;2024-01-30T01:15:52;3.05;;;1.48;;
75935;SDS011;64614;32.062;34.834;2024-01-30T01:18:17;2.72;;;1.40;;
75935;SDS011;64614;32.062;34.834;2024-01-30T01:20:43;3.08;;;1.48;;
75935;SDS011;64614;32.062;34.834;2024-01-30T01:23:08;1.92;;;1.42;;
75935;SDS011;64614;32.062;34.834;2024-01-30T01:25:34;2.85;;;1.70;;
75935;SDS011;64614;32.062;34.834;2024-01-30T01:28:00;3.22;;;1.50;;
75935;SDS011;64614;32.062;34.834;2024-01-30T01:30:26;2.53;;;1.58;;
75935;SDS011;64614;32.062;34.834;2024-01-30T01:32:54;3.22;;;1.35;;
75935;SDS011;64614;32.062;34.834;2024-01-30T01:35:25;3.10;;;1.33;;
75935;SDS011;64614;32.062;34.834;2024-01-30T01:37:51;2.53;;;1.33;;
75935;SDS011;64614;32.062;34.834;2024-01-30T01:40:22;3.42;;;1.50;;
75935;SDS011;64614;32.062;34.834;2024-01-30T01:42:49;1.90;;;1.30;;
75935;SDS011;64614;32.062;34.834;2024-01-30T01:45:18;3.63;;;1.70;;
75935;SDS011;64614;32.062;34.834;2024-01-30T01:47:44;5.55;;;1.77;;
75935;SDS011;64614;32.062;34.834;2024-01-30T01:50:12;3.75;;;1.70;;
75935;SDS011;64614;32.062;34.834;2024-01-30T01:52:43;3.38;;;1.63;;
75935;SDS011;64614;32.062;34.834;2024-01-30T01:55:10;4.28;;;1.77;;
75935;SDS011;64614;32.062;34.834;2024-01-30T01:57:36;2.42;;;1.45;;
75935;SDS011;64614;32.062;34.834;2024-01-30T02:00:04;2.88;;;1.50;;
75935;SDS011;64614;32.062;34.834;2024-01-30T02:02:30;2.67;;;1.45;;
75935;SDS011;64614;32.062;34.834;2024-01-30T02:04:58;3.55;;;1.63;;
75935;SDS011;64614;32.062;34.834;2024-01-30T02:07:24;3.28;;;1.70;;
75935;SDS011;64614;32.062;34.834;2024-01-30T02:09:50;4.20;;;2.05;;
75935;SDS011;64614;32.062;34.834;2024-01-30T02:12:15;2.20;;;1.40;;
75935;SDS011;64614;32.062;34.834;2024-01-30T02:14:47;2.53;;;1.50;;
75935;SDS011;64614;32.062;34.834;2024-01-30T02:17:15;2.97;;;1.50;;
75935;SDS011;64614;32.062;34.834;2024-01-30T02:19:41;3.47;;;1.55;;
75935;SDS011;64614;32.062;34.834;2024-01-30T02:22:07;3.40;;;1.45;;
75935;SDS011;64614;32.062;34.834;2024-01-30T02:24:33;3.63;;;1.52;;
75935;SDS011;64614;32.062;34.834;2024-01-30T02:26:59;3.03;;;1.50;;
75935;SDS011;64614;32.062;34.834;2024-01-30T02:31:56;3.05;;;1.65;;
75935;SDS011;64614;32.062;34.834;2024-01-30T02:34:23;3.03;;;1.55;;
75935;SDS011;64614;32.062;34.834;2024-01-30T02:36:49;3.67;;;1.45;;
75935;SDS011;64614;32.062;34.834;2024-01-30T02:39:14;4.45;;;1.70;;
75935;SDS011;64614;32.062;34.834;2024-01-30T02:41:40;1.88;;;1.40;;
75935;SDS011;64614;32.062;34.834;2024-01-30T02:44:05;3.05;;;1.52;;
75935;SDS011;64614;32.062;34.834;2024-01-30T02:46:32;2.80;;;1.50;;
75935;SDS011;64614;32.062;34.834;2024-01-30T02:48:58;5.57;;;1.95;;
75935;SDS011;64614;32.062;34.834;2024-01-30T02:51:24;3.53;;;1.55;;
75935;SDS011;64614;32.062;34.834;2024-01-30T02:53:49;3.90;;;1.70;;
75935;SDS011;64614;32.062;34.834;2024-01-30T02:56:15;3.80;;;1.80;;
75935;SDS011;64614;32.062;34.834;2024-01-30T02:58:42;4.07;;;1.80;;
75935;SDS011;64614;32.062;34.834;2024-01-30T03:01:09;4.10;;;1.80;;
75935;SDS011;64614;32.062;34.834;2024-01-30T03:03:34;3.15;;;1.80;;
75935;SDS011;64614;32.062;34.834;2024-01-30T03:06:01;6.05;;;2.10;;
75935;SDS011;64614;32.062;34.834;2024-01-30T03:08:28;4.30;;;2.05;;
75935;SDS011;64614;32.062;34.834;2024-01-30T03:10:56;5.25;;;2.10;;
75935;SDS011;64614;32.062;34.834;2024-01-30T03:13:25;4.35;;;2.00;;
75935;SDS011;64614;32.062;34.834;2024-01-30T03:15:51;3.58;;;2.10;;
75935;SDS011;64614;32.062;34.834;2024-01-30T03:18:24;4.20;;;2.03;;
75935;SDS011;64614;32.062;34.834;2024-01-30T03:20:51;4.82;;;2.00;;
75935;SDS011;64614;32.062;34.834;2024-01-30T03:23:17;4.30;;;2.20;;
75935;SDS011;64614;32.062;34.834;2024-01-30T03:25:42;3.90;;;2.17;;
75935;SDS011;64614;32.062;34.834;2024-01-30T03:28:09;4.70;;;2.50;;
75935;SDS011;64614;32.062;34.834;2024-01-30T03:30:35;5.68;;;2.35;;
75935;SDS011;64614;32.062;34.834;2024-01-30T03:33:02;4.72;;;1.98;;
75935;SDS011;64614;32.062;34.834;2024-01-30T03:35:27;4.68;;;2.20;;
75935;SDS011;64614;32.062;34.834;2024-01-30T03:37:58;4.50;;;2.10;;
75935;SDS011;64614;32.062;34.834;2024-01-30T03:40:25;4.82;;;2.25;;
75935;SDS011;64614;32.062;34.834;2024-01-30T03:42:50;4.35;;;2.00;;
75935;SDS011;64614;32.062;34.834;2024-01-30T03:45:16;4.63;;;2.03;;
75935;SDS011;64614;32.062;34.834;2024-01-30T03:47:44;5.32;;;2.00;;
75935;SDS011;64614;32.062;34.834;2024-01-30T03:50:10;4.22;;;1.80;;
75935;SDS011;64614;32.062;34.834;2024-01-30T03:52:36;3.47;;;1.83;;
75935;SDS011;64614;32.062;34.834;2024-01-30T03:55:03;5.55;;;2.10;;
75935;SDS011;64614;32.062;34.834;2024-01-30T03:57:29;3.70;;;1.70;;
75935;SDS011;64614;32.062;34.834;2024-01-30T03:59:59;4.75;;;1.80;;
75935;SDS011;64614;32.062;34.834;2024-01-30T04:02:26;4.88;;;2.30;;
75935;SDS011;64614;32.062;34.834;2024-01-30T04:04:51;4.20;;;2.20;;
75935;SDS011;64614;32.062;34.834;2024-01-30T04:07:17;11.02;;;2.55;;
75935;SDS011;64614;32.062;34.834;2024-01-30T04:09:42;3.78;;;2.05;;
75935;SDS011;64614;32.062;34.834;2024-01-30T04:12:08;6.40;;;2.50;;
75935;SDS011;64614;32.062;34.834;2024-01-30T04:14:34;6.05;;;2.53;;
75935;SDS011;64614;32.062;34.834;2024-01-30T04:17:00;4.95;;;2.45;;
75935;SDS011;64614;32.062;34.834;2024-01-30T04:19:26;5.22;;;2.63;;
75935;SDS011;64614;32.062;34.834;2024-01-30T04:21:51;5.47;;;2.03;;
75935;SDS011;64614;32.062;34.834;2024-01-30T04:24:18;4.65;;;2.30;;
75935;SDS011;64614;32.062;34.834;2024-01-30T04:26:45;4.60;;;2.15;;
75935;SDS011;64614;32.062;34.834;2024-01-30T04:29:10;5.38;;;2.28;;
75935;SDS011;64614;32.062;34.834;2024-01-30T04:31:37;5.15;;;2.50;;
75935;SDS011;64614;32.062;34.834;2024-01-30T04:34:03;6.28;;;2.50;;
75935;SDS011;64614;32.062;34.834;2024-01-30T04:36:29;4.78;;;2.10;;
75935;SDS011;64614;32.062;34.834;2024-01-30T04:38:54;6.18;;;2.60;;
75935;SDS011;64614;32.062;34.834;2024-01-30T04:41:21;5.65;;;2.10;;
75935;SDS011;64614;32.062;34.834;2024-01-30T04:43:47;4.45;;;2.33;;
75935;SDS011;64614;32.062;34.834;2024-01-30T04:46:12;4.38;;;1.92;;
75935;SDS011;64614;32.062;34.834;2024-01-30T04:48:38;5.47;;;2.00;;
75935;SDS011;64614;32.062;34.834;2024-01-30T04:51:04;4.85;;;2.30;;
75935;SDS011;64614;32.062;34.834;2024-01-30T04:53:30;4.88;;;2.10;;
75935;SDS011;64614;32.062;34.834;2024-01-30T04:55:56;5.13;;;1.75;;
75935;SDS011;64614;32.062;34.834;2024-01-30T04:58:22;5.82;;;2.00;;
75935;SDS011;64614;32.062;34.834;2024-01-30T05:00:47;3.80;;;1.75;;
75935;SDS011;64614;32.062;34.834;2024-01-30T05:03:16;6.50;;;2.03;;
75935;SDS011;64614;32.062;34.834;2024-01-30T05:05:45;5.03;;;1.67;;
75935;SDS011;64614;32.062;34.834;2024-01-30T05:08:11;5.25;;;2.20;;
75935;SDS011;64614;32.062;34.834;2024-01-30T05:10:36;6.10;;;2.08;;
75935;SDS011;64614;32.062;34.834;2024-01-30T05:13:02;7.45;;;2.22;;
75935;SDS011;64614;32.062;34.834;2024-01-30T05:15:28;8.23;;;2.10;;
75935;SDS011;64614;32.062;34.834;2024-01-30T05:17:53;4.47;;;1.77;;
75935;SDS011;64614;32.062;34.834;2024-01-30T05:22:49;6.10;;;1.92;;
75935;SDS011;64614;32.062;34.834;2024-01-30T05:25:14;5.80;;;2.20;;
75935;SDS011;64614;32.062;34.834;2024-01-30T05:27:40;5.53;;;1.95;;
75935;SDS011;64614;32.062;34.834;2024-01-30T05:30:06;6.25;;;2.53;;
75935;SDS011;64614;32.062;34.834;2024-01-30T05:32:32;6.38;;;2.10;;
75935;SDS011;64614;32.062;34.834;2024-01-30T05:34:58;7.28;;;2.60;;
75935;SDS011;64614;32.062;34.834;2024-01-30T05:37:24;6.82;;;2.50;;
75935;SDS011;64614;32.062;34.834;2024-01-30T05:39:49;8.55;;;2.50;;
75935;SDS011;64614;32.062;34.834;2024-01-30T05:42:16;7.70;;;2.30;;
75935;SDS011;64614;32.062;34.834;2024-01-30T05:44:42;6.40;;;2.25;;
75935;SDS011;64614;32.062;34.834;2024-01-30T05:47:08;5.28;;;2.08;;
75935;SDS011;64614;32.062;34.834;2024-01-30T05:49:33;5.63;;;1.98;;
75935;SDS011;64614;32.062;34.834;2024-01-30T05:52:00;6.65;;;2.10;;
75935;SDS011;64614;32.062;34.834;2024-01-30T05:54:27;5.80;;;2.38;;
75935;SDS011;64614;32.062;34.834;2024-01-30T05:57:02;4.10;;;2.10;;
75935;SDS011;64614;32.062;34.834;2024-01-30T06:01:53;7.00;;;2.05;;
75935;SDS011;64614;32.062;34.834;2024-01-30T06:04:20;5.03;;;1.85;;
75935;SDS011;64614;32.062;34.834;2024-01-30T06:06:45;5.50;;;2.08;;
75935;SDS011;64614;32.062;34.834;2024-01-30T06:09:11;6.03;;;2.20;;
75935;SDS011;64614;32.062;34.834;2024-01-30T06:11:38;7.78;;;2.28;;
75935;SDS011;64614;32.062;34.834;2024-01-30T06:14:03;5.40;;;2.13;;
75935;SDS011;64614;32.062;34.834;2024-01-30T06:16:29;4.35;;;1.90;;
75935;SDS011;64614;32.062;34.834;2024-01-30T06:18:55;6.32;;;2.33;;
75935;SDS011;64614;32.062;34.834;2024-01-30T06:21:21;8.18;;;3.08;;
75935;SDS011;64614;32.062;34.834;2024-01-30T06:23:47;8.00;;;3.05;;
75935;SDS011;64614;32.062;34.834;2024-01-30T06:26:12;6.65;;;2.65;;
75935;SDS011;64614;32.062;34.834;2024-01-30T06:28:38;7.82;;;2.53;;
75935;SDS011;64614;32.062;34.834;2024-01-30T06:31:05;6.70;;;2.35;;
75935;SDS011;64614;32.062;34.834;2024-01-30T06:33:31;7.22;;;2.40;;
75935;SDS011;64614;32.062;34.834;2024-01-30T06:35:57;6.43;;;2.60;;
75935;SDS011;64614;32.062;34.834;2024-01-30T06:38:28;7.30;;;2.95;;
75935;SDS011;64614;32.062;34.834;2024-01-30T06:40:53;5.72;;;2.42;;
75935;SDS011;64614;32.062;34.834;2024-01-30T06:50:58;5.32;;;1.98;;
75935;SDS011;64614;32.062;34.834;2024-01-30T06:53:24;4.90;;;2.05;;
75935;SDS011;64614;32.062;34.834;2024-01-30T06:55:51;9.00;;;2.50;;
75935;SDS011;64614;32.062;34.834;2024-01-30T06:58:26;5.70;;;2.53;;
75935;SDS011;64614;32.062;34.834;2024-01-30T07:00:56;7.50;;;2.40;;
75935;SDS011;64614;32.062;34.834;2024-01-30T07:03:26;6.70;;;2.35;;
75935;SDS011;64614;32.062;34.834;2024-01-30T07:05:54;7.68;;;2.40;;
75935;SDS011;64614;32.062;34.834;2024-01-30T07:11:24;7.40;;;2.35;;
75935;SDS011;64614;32.062;34.834;2024-01-30T07:13:54;7.35;;;2.80;;
75935;SDS011;64614;32.062;34.834;2024-01-30T07:16:20;7.47;;;2.50;;
75935;SDS011;64614;32.062;34.834;2024-01-30T07:18:45;5.68;;;2.47;;
75935;SDS011;64614;32.062;34.834;2024-01-30T07:21:11;7.45;;;2.40;;
75935;SDS011;64614;32.062;34.834;2024-01-30T07:23:37;7.72;;;2.20;;
75935;SDS011;64614;32.062;34.834;2024-01-30T07:26:08;6.70;;;2.22;;
75935;SDS011;64614;32.062;34.834;2024-01-30T07:28:48;8.20;;;2.88;;
75935;SDS011;64614;32.062;34.834;2024-01-30T07:31:15;7.57;;;2.55;;
75935;SDS011;64614;32.062;34.834;2024-01-30T07:33:42;8.30;;;2.65;;
75935;SDS011;64614;32.062;34.834;2024-01-30T07:36:11;5.40;;;2.22;;
75935;SDS011;64614;32.062;34.834;2024-01-30T07:38:36;5.80;;;1.90;;
75935;SDS011;64614;32.062;34.834;2024-01-30T07:41:03;4.93;;;2.00;;
75935;SDS011;64614;32.062;34.834;2024-01-30T07:43:29;6.20;;;2.22;;
75935;SDS011;64614;32.062;34.834;2024-01-30T07:45:55;6.07;;;2.30;;
75935;SDS011;64614;32.062;34.834;2024-01-30T07:48:20;4.68;;;2.00;;
75935;SDS011;64614;32.062;34.834;2024-01-30T07:50:46;5.40;;;2.20;;
75935;SDS011;64614;32.062;34.834;2024-01-30T07:53:12;4.55;;;2.08;;
75935;SDS011;64614;32.062;34.834;2024-01-30T07:58:06;3.90;;;1.70;;
75935;SDS011;64614;32.062;34.834;2024-01-30T08:00:32;2.85;;;1.60;;
75935;SDS011;64614;32.062;34.834;2024-01-30T08:02:57;4.15;;;1.58;;
75935;SDS011;64614;32.062;34.834;2024-01-30T08:05:23;3.58;;;1.60;;
75935;SDS011;64614;32.062;34.834;2024-01-30T08:07:49;4.78;;;2.10;;
75935;SDS011;64614;32.062;34.834;2024-01-30T08:10:15;4.68;;;2.13;;
75935;SDS011;64614;32.062;34.834;2024-01-30T08:12:43;6.32;;;2.50;;
75935;SDS011;64614;32.062;34.834;2024-01-30T08:15:09;8.45;;;3.00;;
75935;SDS011;64614;32.062;34.834;2024-01-30T08:17:40;6.93;;;2.78;;
75935;SDS011;64614;32.062;34.834;2024-01-30T08:20:09;8.10;;;2.85;;
75935;SDS011;64614;32.062;34.834;2024-01-30T08:22:40;7.25;;;2.75;;
75935;SDS011;64614;32.062;34.834;2024-01-30T08:25:10;6.90;;;2.90;;
75935;SDS011;64614;32.062;34.834;2024-01-30T08:27:36;7.57;;;3.05;;
75935;SDS011;64614;32.062;34.834;2024-01-30T08:30:04;6.85;;;3.00;;
75935;SDS011;64614;32.062;34.834;2024-01-30T08:32:33;6.28;;;2.80;;
75935;SDS011;64614;32.062;34.834;2024-01-30T08:34:59;6.85;;;2.90;;
75935;SDS011;64614;32.062;34.834;2024-01-30T08:37:25;6.35;;;2.55;;
75935;SDS011;64614;32.062;34.834;2024-01-30T08:39:51;7.80;;;2.80;;
75935;SDS011;64614;32.062;34.834;2024-01-30T08:42:16;6.38;;;2.50;;
75935;SDS011;64614;32.062;34.834;2024-01-30T08:44:47;7.45;;;2.50;;
75935;SDS011;64614;32.062;34.834;2024-01-30T08:47:14;6.65;;;2.50;;
75935;SDS011;64614;32.062;34.834;2024-01-30T08:49:42;7.32;;;2.60;;
75935;SDS011;64614;32.062;34.834;2024-01-30T08:52:09;6.53;;;2.53;;
75935;SDS011;64614;32.062;34.834;2024-01-30T08:54:38;7.32;;;2.67;;
75935;SDS011;64614;32.062;34.834;2024-01-30T08:57:04;6.78;;;2.60;;
75935;SDS011;64614;32.062;34.834;2024-01-30T08:59:29;6.97;;;2.58;;
75935;SDS011;64614;32.062;34.834;2024-01-30T09:01:55;5.97;;;2.63;;
75935;SDS011;64614;32.062;34.834;2024-01-30T09:04:23;6.13;;;2.65;;
75935;SDS011;64614;32.062;34.834;2024-01-30T09:06:52;8.02;;;2.40;;
75935;SDS011;64614;32.062;34.834;2024-01-30T09:09:17;6.75;;;2.42;;
75935;SDS011;64614;32.062;34.834;2024-01-30T09:11:44;6.32;;;2.20;;
75935;SDS011;64614;32.062;34.834;2024-01-30T09:14:09;6.43;;;2.53;;
75935;SDS011;64614;32.062;34.834;2024-01-30T09:16:35;6.75;;;2.30;;
75935;SDS011;64614;32.062;34.834;2024-01-30T09:19:02;5.18;;;2.08;;
75935;SDS011;64614;32.062;34.834;2024-01-30T09:21:30;6.05;;;2.25;;
75935;SDS011;64614;32.062;34.834;2024-01-30T09:24:01;5.57;;;2.00;;
75935;SDS011;64614;32.062;34.834;2024-01-30T09:26:29;6.22;;;2.22;;
75935;SDS011;64614;32.062;34.834;2024-01-30T09:28:57;4.57;;;1.90;;
75935;SDS011;64614;32.062;34.834;2024-01-30T09:31:23;5.60;;;1.85;;
75935;SDS011;64614;32.062;34.834;2024-01-30T09:33:49;5.38;;;1.90;;
75935;SDS011;64614;32.062;34.834;2024-01-30T09:36:16;5.55;;;1.83;;
75935;SDS011;64614;32.062;34.834;2024-01-30T09:38:43;5.00;;;1.80;;
75935;SDS011;64614;32.062;34.834;2024-01-30T09:41:09;4.15;;;1.50;;
75935;SDS011;64614;32.062;34.834;2024-01-30T09:43:38;5.45;;;1.77;;
75935;SDS011;64614;32.062;34.834;2024-01-30T09:46:05;6.28;;;1.90;;
75935;SDS011;64614;32.062;34.834;2024-01-30T09:48:33;5.32;;;1.88;;
75935;SDS011;64614;32.062;34.834;2024-01-30T09:50:59;6.45;;;1.90;;
75935;SDS011;64614;32.062;34.834;2024-01-30T09:53:25;5.10;;;1.80;;
75935;SDS011;64614;32.062;34.834;2024-01-30T09:55:52;3.85;;;1.63;;
75935;SDS011;64614;32.062;34.834;2024-01-30T09:58:17;5.95;;;1.80;;
75935;SDS011;64614;32.062;34.834;2024-01-30T10:00:43;3.58;;;1.40;;
75935;SDS011;64614;32.062;34.834;2024-01-30T10:03:09;5.38;;;1.80;;
75935;SDS011;64614;32.062;34.834;2024-01-30T10:05:35;7.20;;;1.95;;
75935;SDS011;64614;32.062;34.834;2024-01-30T10:08:05;4.22;;;1.42;;
75935;SDS011;64614;32.062;34.834;2024-01-30T10:10:34;5.10;;;1.65;;
75935;SDS011;64614;32.062;34.834;2024-01-30T10:13:01;4.85;;;1.58;;
75935;SDS011;64614;32.062;34.834;2024-01-30T10:15:28;4.25;;;1.50;;
75935;SDS011;64614;32.062;34.834;2024-01-30T10:17:55;4.22;;;1.33;;
75935;SDS011;64614;32.062;34.834;2024-01-30T10:20:20;3.08;;;1.40;;
75935;SDS011;64614;32.062;34.834;2024-01-30T10:22:47;3.58;;;1.50;;
75935;SDS011;64614;32.062;34.834;2024-01-30T10:25:14;4.40;;;1.48;;
75935;SDS011;64614;32.062;34.834;2024-01-30T10:27:41;4.07;;;1.50;;
75935;SDS011;64614;32.062;34.834;2024-01-30T10:30:07;3.13;;;1.40;;
75935;SDS011;64614;32.062;34.834;2024-01-30T10:32:33;2.60;;;1.30;;
75935;SDS011;64614;32.062;34.834;2024-01-30T10:34:59;4.22;;;1.45;;
75935;SDS011;64614;32.062;34.834;2024-01-30T10:37:25;3.88;;;1.40;;
75935;SDS011;64614;32.062;34.834;2024-01-30T10:39:52;2.70;;;1.40;;
75935;SDS011;64614;32.062;34.834;2024-01-30T10:42:20;4.22;;;1.20;;
75935;SDS011;64614;32.062;34.834;2024-01-30T10:47:27;3.00;;;1.20;;
75935;SDS011;64614;32.062;34.834;2024-01-30T10:49:54;2.58;;;1.27;;
75935;SDS011;64614;32.062;34.834;2024-01-30T10:52:22;3.60;;;1.35;;
75935;SDS011;64614;32.062;34.834;2024-01-30T10:54:53;3.75;;;1.58;;
75935;SDS011;64614;32.062;34.834;2024-01-30T10:57:19;2.38;;;1.40;;
75935;SDS011;64614;32.062;34.834;2024-01-30T10:59:49;6.72;;;1.70;;
75935;SDS011;64614;32.062;34.834;2024-01-30T11:02:20;3.75;;;1.30;;
75935;SDS011;64614;32.062;34.834;2024-01-30T11:04:48;3.85;;;1.27;;
75935;SDS011;64614;32.062;34.834;2024-01-30T11:07:18;4.78;;;1.60;;
75935;SDS011;64614;32.062;34.834;2024-01-30T11:10:19;3.33;;;1.42;;
75935;SDS011;64614;32.062;34.834;2024-01-30T11:12:40;4.70;;;1.73;;
75935;SDS011;64614;32.062;34.834;2024-01-30T11:15:14;2.92;;;1.20;;
75935;SDS011;64614;32.062;34.834;2024-01-30T11:22:45;2.80;;;1.27;;
75935;SDS011;64614;32.062;34.834;2024-01-30T11:27:43;5.30;;;1.42;;
75935;SDS011;64614;32.062;34.834;2024-01-30T11:33:07;4.47;;;1.30;;
75935;SDS011;64614;32.062;34.834;2024-01-30T11:36:01;5.57;;;1.60;;
75935;SDS011;64614;32.062;34.834;2024-01-30T11:38:34;2.67;;;1.15;;
75935;SDS011;64614;32.062;34.834;2024-01-30T11:41:10;3.80;;;1.20;;
75935;SDS011;64614;32.062;34.834;2024-01-30T11:43:36;2.70;;;1.20;;
75935;SDS011;64614;32.062;34.834;2024-01-30T11:46:05;3.08;;;1.08;;
75935;SDS011;64614;32.062;34.834;2024-01-30T11:48:35;2.58;;;1.00;;
75935;SDS011;64614;32.062;34.834;2024-01-30T11:51:01;2.78;;;1.20;;
75935;SDS011;64614;32.062;34.834;2024-01-30T11:53:27;2.85;;;1.17;;
75935;SDS011;64614;32.062;34.834;2024-01-30T11:55:52;3.22;;;1.10;;
75935;SDS011;64614;32.062;34.834;2024-01-30T11:58:19;2.72;;;1.08;;
75935;SDS011;64614;32.062;34.834;2024-01-30T12:00:52;1.77;;;0.90;;
75935;SDS011;64614;32.062;34.834;2024-01-30T12:03:23;1.80;;;0.98;;
75935;SDS011;64614;32.062;34.834;2024-01-30T12:05:55;2.88;;;1.10;;
75935;SDS011;64614;32.062;34.834;2024-01-30T12:08:22;2.25;;;1.00;;
75935;SDS011;64614;32.062;34.834;2024-01-30T12:10:59;3.15;;;1.00;;
75935;SDS011;64614;32.062;34.834;2024-01-30T12:13:30;3.30;;;1.10;;
75935;SDS011;64614;32.062;34.834;2024-01-30T12:15:56;1.52;;;0.93;;
75935;SDS011;64614;32.062;34.834;2024-01-30T12:18:22;2.63;;;1.00;;
75935;SDS011;64614;32.062;34.834;2024-01-30T12:21:00;1.98;;;0.90;;
75935;SDS011;64614;32.062;34.834;2024-01-30T12:23:29;3.00;;;1.15;;
75935;SDS011;64614;32.062;34.834;2024-01-30T12:25:56;1.42;;;0.90;;
75935;SDS011;64614;32.062;34.834;2024-01-30T12:28:22;1.88;;;0.90;;
75935;SDS011;64614;32.062;34.834;2024-01-30T12:30:49;2.13;;;0.90;;
75935;SDS011;64614;32.062;34.834;2024-01-30T12:33:19;1.42;;;0.82;;
75935;SDS011;64614;32.062;34.834;2024-01-30T12:35:46;1.30;;;0.90;;
75935;SDS011;64614;32.062;34.834;2024-01-30T12:38:16;2.85;;;0.90;;
75935;SDS011;64614;32.062;34.834;2024-01-30T12:40:42;2.22;;;0.88;;
75935;SDS011;64614;32.062;34.834;2024-01-30T12:43:08;2.42;;;0.80;;
75935;SDS011;64614;32.062;34.834;2024-01-30T12:45:34;1.75;;;0.82;;
75935;SDS011;64614;32.062;34.834;2024-01-30T12:47:59;2.08;;;0.90;;
75935;SDS011;64614;32.062;34.834;2024-01-30T12:50:26;1.63;;;0.90;;
75935;SDS011;64614;32.062;34.834;2024-01-30T12:52:52;2.45;;;1.00;;
75935;SDS011;64614;32.062;34.834;2024-01-30T12:55:17;2.35;;;0.85;;
75935;SDS011;64614;32.062;34.834;2024-01-30T12:57:43;2.03;;;0.95;;
75935;SDS011;64614;32.062;34.834;2024-01-30T13:00:09;1.10;;;0.70;;
75935;SDS011;64614;32.062;34.834;2024-01-30T13:02:35;0.85;;;0.80;;
75935;SDS011;64614;32.062;34.834;2024-01-30T13:05:04;1.15;;;0.82;;
75935;SDS011;64614;32.062;34.834;2024-01-30T13:07:32;1.45;;;0.77;;
75935;SDS011;64614;32.062;34.834;2024-01-30T13:10:02;1.27;;;0.80;;
75935;SDS011;64614;32.062;34.834;2024-01-30T13:12:29;2.03;;;0.90;;
75935;SDS011;64614;32.062;34.834;2024-01-30T13:14:59;1.17;;;0.88;;
75935;SDS011;64614;32.062;34.834;2024-01-30T13:17:26;1.58;;;0.90;;
75935;SDS011;64614;32.062;34.834;2024-01-30T13:19:56;1.83;;;0.82;;
75935;SDS011;64614;32.062;34.834;2024-01-30T13:22:22;1.70;;;0.85;;
75935;SDS011;64614;32.062;34.834;2024-01-30T13:24:48;1.85;;;1.10;;
75935;SDS011;64614;32.062;34.834;2024-01-30T13:27:14;1.50;;;0.90;;
75935;SDS011;64614;32.062;34.834;2024-01-30T13:29:41;1.75;;;0.93;;
75935;SDS011;64614;32.062;34.834;2024-01-30T13:32:07;1.90;;;0.98;;
75935;SDS011;64614;32.062;34.834;2024-01-30T13:34:33;3.42;;;1.25;;
75935;SDS011;64614;32.062;34.834;2024-01-30T13:37:03;2.65;;;1.10;;
75935;SDS011;64614;32.062;34.834;2024-01-30T13:39:30;3.50;;;1.10;;
75935;SDS011;64614;32.062;34.834;2024-01-30T13:41:57;4.22;;;1.35;;
75935;SDS011;64614;32.062;34.834;2024-01-30T13:44:23;3.10;;;1.30;;
75935;SDS011;64614;32.062;34.834;2024-01-30T13:46:48;2.75;;;0.90;;
75935;SDS011;64614;32.062;34.834;2024-01-30T13:49:14;4.63;;;1.23;;
75935;SDS011;64614;32.062;34.834;2024-01-30T13:51:40;2.42;;;1.17;;
75935;SDS011;64614;32.062;34.834;2024-01-30T13:54:05;2.55;;;1.10;;
75935;SDS011;64614;32.062;34.834;2024-01-30T13:56:31;2.40;;;1.13;;
75935;SDS011;64614;32.062;34.834;2024-01-30T13:58:57;2.78;;;1.23;;
75935;SDS011;64614;32.062;34.834;2024-01-30T14:01:22;3.47;;;1.48;;
75935;SDS011;64614;32.062;34.834;2024-01-30T14:03:50;3.83;;;1.45;;
75935;SDS011;64614;32.062;34.834;2024-01-30T14:06:15;2.13;;;1.13;;
75935;SDS011;64614;32.062;34.834;2024-01-30T14:08:43;2.47;;;1.27;;
75935;SDS011;64614;32.062;34.834;2024-01-30T14:11:09;2.95;;;1.40;;
75935;SDS011;64614;32.062;34.834;2024-01-30T14:13:35;4.07;;;1.40;;
75935;SDS011;64614;32.062;34.834;2024-01-30T14:16:00;3.92;;;1.20;;
75935;SDS011;64614;32.062;34.834;2024-01-30T14:18:26;2.50;;;1.33;;
75935;SDS011;64614;32.062;34.834;2024-01-30T14:20:52;3.83;;;1.60;;
75935;SDS011;64614;32.062;34.834;2024-01-30T14:23:19;5.32;;;1.30;;
75935;SDS011;64614;32.062;34.834;2024-01-30T14:25:45;4.88;;;1.48;;
75935;SDS011;64614;32.062;34.834;2024-01-30T14:28:10;3.78;;;1.50;;
75935;SDS011;64614;32.062;34.834;2024-01-30T14:30:36;3.08;;;1.40;;
75935;SDS011;64614;32.062;34.834;2024-01-30T14:33:02;4.00;;;1.38;;
75935;SDS011;64614;32.062;34.834;2024-01-30T14:35:27;4.00;;;1.60;;
75935;SDS011;64614;32.062;34.834;2024-01-30T14:37:53;3.40;;;1.50;;
75935;SDS011;64614;32.062;34.834;2024-01-30T14:40:19;3.78;;;1.60;;
75935;SDS011;64614;32.062;34.834;2024-01-30T14:42:45;3.67;;;1.60;;
75935;SDS011;64614;32.062;34.834;2024-01-30T14:45:10;4.05;;;1.35;;
75935;SDS011;64614;32.062;34.834;2024-01-30T14:47:36;4.07;;;1.30;;
75935;SDS011;64614;32.062;34.834;2024-01-30T14:50:03;3.80;;;1.50;;
75935;SDS011;64614;32.062;34.834;2024-01-30T14:52:30;3.50;;;1.40;;
75935;SDS011;64614;32.062;34.834;2024-01-30T14:54:56;3.75;;;1.50;;
75935;SDS011;64614;32.062;34.834;2024-01-30T14:57:23;4.70;;;1.65;;
75935;SDS011;64614;32.062;34.834;2024-01-30T14:59:50;5.50;;;1.45;;
75935;SDS011;64614;32.062;34.834;2024-01-30T15:02:15;3.42;;;1.25;;
75935;SDS011;64614;32.062;34.834;2024-01-30T15:04:41;5.72;;;1.70;;